Aérodrome :
LOGIN :

S'inscrire | Disclaimer

   EN    FR    IT 

 










Légende :    VFR   VFR Marginal   IFR   IFR Intensif   IFR Très Intensif
Visi : 
Plafond : 
>= 8 km
>= 3000ft
5 à 8 km
1000 à 3000 ft
1500m à 5 km
500 à 1000 ft
800 à 1500m
200 à 500 ft
< 800m
< 200 ft
Symboles :   Orages  Brouillard  Fortes neiges  Fortes précipitations  Vent > 20 kt
SIGMETs :   Divers  Orages  Givrage  Turbulence  Onde Orograph.  Cendres Volcan.






- Altitude de l'aérodrome : 1649 ft
- Code IATA : HHN


EDFH - Frankfurt-Hahn Rhineland-Palatinate

DERNIER METAR :
  • 161150Z 07007G17KT 020V150 9999 SCT035 05/M03 Q1024

METARs EXPIRÉS :
  • 161120Z 05008KT 360V100 9999 BKN037 05/M04 Q1024
  • 161050Z 03010KT 360V080 9999 SCT032 05/M03 Q1024
  • 161020Z 07009KT 020V120 9999 SCT025 04/M02 Q1024
  • 160950Z 05008KT 010V100 9999 SCT025 03/M03 Q1025
  • 160920Z 06009KT 020V120 9999 SCT030 03/M03 Q1025

TAF TAF EDFH
Valide du 16 à 12h jusqu'au 17 à 12h UTC


161100Z 1612/1712 04011KT 9999 SCT040
BECMG 1617/1619 04006KT
BECMG 1706/1708 03011KT



MET'MAP, la Météo Aéronautique d'un coup d'oeil ! - Copyright ORBIFLY Décembre 2007 - Disclaimer

ORBIFLY MET'MAP TEAM :

Programmation & Développement : Alexandra Zaïnal
Sur une idée originale de : Baudouin d'Aumeries
Assistance à la programmation : Marc-Olivier Méhu
Soutien technique & logistique : Manuel Goepfert

Contact : metmap@orbifly.com




SOURCES & CREDITS :

   NOAA